createdAt,value
2023-08-12T00:01:42.088Z,13.90
2023-08-12T00:04:08.948Z,17.13
2023-08-12T00:06:35.770Z,14.25
2023-08-12T00:09:05.020Z,11.27
2023-08-12T00:11:31.840Z,13.88
2023-08-12T00:13:58.706Z,15.43
2023-08-12T00:16:25.922Z,12.68
2023-08-12T00:18:52.731Z,11.80
2023-08-12T00:21:19.571Z,10.77
2023-08-12T00:23:46.508Z,13.65
2023-08-12T00:26:13.288Z,11.20
2023-08-12T00:28:40.115Z,14.20
2023-08-12T00:31:06.926Z,13.85
2023-08-12T00:33:33.708Z,13.50
2023-08-12T00:36:00.610Z,13.05
2023-08-12T00:38:27.400Z,15.50
2023-08-12T00:40:54.227Z,12.52
2023-08-12T00:43:21.081Z,11.90
2023-08-12T00:45:47.926Z,16.88
2023-08-12T00:48:14.999Z,11.73
2023-08-12T00:50:41.959Z,11.23
2023-08-12T00:53:09.225Z,12.23
2023-08-12T00:55:36.142Z,11.15
2023-08-12T00:58:03.561Z,9.00
2023-08-12T01:00:30.398Z,9.45
2023-08-12T01:02:57.682Z,11.77
2023-08-12T01:05:24.804Z,12.50
2023-08-12T01:07:51.660Z,10.85
2023-08-12T01:10:18.483Z,12.55
2023-08-12T01:12:59.383Z,11.32
2023-08-12T01:15:27.375Z,10.80
2023-08-12T01:17:55.035Z,11.88
2023-08-12T01:20:26.034Z,13.23
2023-08-12T01:23:10.440Z,11.13
2023-08-12T01:25:37.258Z,10.45
2023-08-12T01:28:04.598Z,8.43
2023-08-12T01:30:31.570Z,11.77
2023-08-12T01:33:12.459Z,10.55
2023-08-12T01:35:48.554Z,13.25
2023-08-12T01:38:15.350Z,13.07
2023-08-12T01:40:42.212Z,11.87
2023-08-12T01:43:09.453Z,10.35
2023-08-12T01:45:36.618Z,9.98
2023-08-12T01:48:04.235Z,12.45
2023-08-12T01:50:31.435Z,12.80
2023-08-12T01:52:59.132Z,12.50
2023-08-12T01:55:26.746Z,8.98
2023-08-12T01:57:53.584Z,11.43
2023-08-12T02:00:20.349Z,9.52
2023-08-12T02:02:47.942Z,10.32
2023-08-12T02:05:15.954Z,10.47
2023-08-12T02:07:42.869Z,8.65
2023-08-12T02:10:10.128Z,11.57
2023-08-12T02:12:37.000Z,12.63
2023-08-12T02:15:03.964Z,10.50
2023-08-12T02:17:30.837Z,9.13
2023-08-12T02:19:57.739Z,12.18
2023-08-12T02:22:24.636Z,11.27
2023-08-12T02:24:51.570Z,9.13
2023-08-12T02:27:18.375Z,10.52
2023-08-12T02:29:45.172Z,8.90
2023-08-12T02:32:11.996Z,10.40
2023-08-12T02:34:38.787Z,13.48
2023-08-12T02:37:05.573Z,11.10
2023-08-12T02:39:32.327Z,10.13
2023-08-12T02:41:59.123Z,12.27
2023-08-12T02:44:25.993Z,9.70
2023-08-12T02:46:52.909Z,12.32
2023-08-12T02:49:19.789Z,12.85
2023-08-12T02:51:46.633Z,14.52
2023-08-12T02:54:13.482Z,11.90
2023-08-12T02:56:41.176Z,10.02
2023-08-12T02:59:08.013Z,12.70
2023-08-12T03:01:34.873Z,11.63
2023-08-12T03:04:01.663Z,11.90
2023-08-12T03:06:28.504Z,10.23
2023-08-12T03:08:55.404Z,9.13
2023-08-12T03:11:22.269Z,12.27
2023-08-12T03:13:49.064Z,10.55
2023-08-12T03:16:15.985Z,12.18
2023-08-12T03:18:42.845Z,8.53
2023-08-12T03:21:10.074Z,10.93
2023-08-12T03:23:37.141Z,11.93
2023-08-12T03:26:04.334Z,10.95
2023-08-12T03:28:31.889Z,12.30
2023-08-12T03:30:58.745Z,10.40
2023-08-12T03:33:25.673Z,12.43
2023-08-12T03:35:52.537Z,11.88
2023-08-12T03:38:19.329Z,10.52
2023-08-12T03:40:46.125Z,11.13
2023-08-12T03:43:13.001Z,11.57
2023-08-12T03:45:43.685Z,14.07
2023-08-12T03:48:10.851Z,12.00
2023-08-12T03:50:40.900Z,11.40
2023-08-12T03:53:07.828Z,12.27
2023-08-12T03:55:34.830Z,12.13
2023-08-12T03:58:01.781Z,11.00
2023-08-12T04:00:28.821Z,10.63
2023-08-12T04:02:55.766Z,10.48
2023-08-12T04:05:22.637Z,8.52
2023-08-12T04:07:49.503Z,10.73
2023-08-12T04:10:16.404Z,10.00
2023-08-12T04:12:43.764Z,11.93
2023-08-12T04:15:10.734Z,10.57
2023-08-12T04:17:37.654Z,10.55
2023-08-12T04:20:07.688Z,10.83
2023-08-12T04:22:35.357Z,13.32
2023-08-12T04:25:03.028Z,12.40
2023-08-12T04:27:29.851Z,12.80
2023-08-12T04:29:56.661Z,11.63
2023-08-12T04:32:23.674Z,12.67
2023-08-12T04:34:50.566Z,12.55
2023-08-12T04:37:17.411Z,14.43
2023-08-12T04:39:44.285Z,11.52
2023-08-12T04:42:11.106Z,12.48
2023-08-12T04:44:37.932Z,8.77
2023-08-12T04:47:04.908Z,12.38
2023-08-12T04:49:31.847Z,10.63
2023-08-12T04:51:59.792Z,7.18
2023-08-12T04:54:26.627Z,8.60
2023-08-12T04:56:53.506Z,9.00
2023-08-12T04:59:20.448Z,7.68
2023-08-12T05:02:02.276Z,6.35
2023-08-12T05:04:30.765Z,7.90
2023-08-12T05:06:57.719Z,8.07
2023-08-12T05:09:24.535Z,6.87
2023-08-12T05:11:51.385Z,7.53
2023-08-12T05:14:18.231Z,7.53
2023-08-12T05:16:45.054Z,8.05
2023-08-12T05:19:11.957Z,6.43
2023-08-12T05:21:38.754Z,5.40
2023-08-12T05:24:06.668Z,7.07
2023-08-12T05:26:34.885Z,7.72
2023-08-12T05:29:01.729Z,5.85
2023-08-12T05:31:28.642Z,6.38
2023-08-12T05:33:55.570Z,7.73
2023-08-12T05:36:22.426Z,6.88
2023-08-12T05:38:49.232Z,6.63
2023-08-12T05:41:16.147Z,7.22
2023-08-12T05:43:44.925Z,7.20
2023-08-12T05:46:11.990Z,12.77
2023-08-12T05:48:38.845Z,8.35
2023-08-12T05:51:05.646Z,11.85
2023-08-12T05:53:33.290Z,17.92
2023-08-12T05:56:00.258Z,13.18
2023-08-12T05:58:27.082Z,13.03
2023-08-12T06:00:53.860Z,11.77
2023-08-12T06:03:20.725Z,9.35
2023-08-12T06:05:47.917Z,13.02
2023-08-12T06:08:15.171Z,11.20
2023-08-12T06:10:41.974Z,8.90
2023-08-12T06:13:08.856Z,9.48
2023-08-12T06:15:35.699Z,11.73
2023-08-12T06:18:03.029Z,10.13
2023-08-12T06:20:30.043Z,12.18
2023-08-12T06:22:56.860Z,11.33
2023-08-12T06:25:23.675Z,11.98
2023-08-12T06:27:50.475Z,7.30
2023-08-12T06:30:17.257Z,12.48
2023-08-12T06:32:44.047Z,11.10
2023-08-12T06:35:10.928Z,10.47
2023-08-12T06:37:37.794Z,10.27
2023-08-12T06:40:05.169Z,11.68
2023-08-12T06:42:32.106Z,7.78
2023-08-12T06:44:59.638Z,7.70
2023-08-12T06:47:28.396Z,5.80
2023-08-12T06:49:55.665Z,8.40
2023-08-12T06:52:22.488Z,7.10
2023-08-12T06:54:49.375Z,8.23
2023-08-12T06:57:16.144Z,9.80
2023-08-12T06:59:43.002Z,7.73
2023-08-12T07:02:10.118Z,9.35
2023-08-12T07:04:37.385Z,7.57
2023-08-12T07:07:04.299Z,10.73
2023-08-12T07:09:31.137Z,5.93
2023-08-12T07:11:58.100Z,8.97
2023-08-12T07:14:24.901Z,6.53
2023-08-12T07:16:51.720Z,7.03
2023-08-12T07:19:18.480Z,5.00
2023-08-12T07:21:45.352Z,8.52
2023-08-12T07:24:12.165Z,6.47
2023-08-12T07:26:38.958Z,6.93
2023-08-12T07:29:05.979Z,6.85
2023-08-12T07:31:32.806Z,5.80
2023-08-12T07:33:59.588Z,8.55
2023-08-12T07:36:26.375Z,5.60
2023-08-12T07:38:53.131Z,5.93
2023-08-12T07:41:19.897Z,7.35
2023-08-12T07:43:46.715Z,7.95
2023-08-12T07:46:13.532Z,6.20
2023-08-12T07:48:40.334Z,6.33
2023-08-12T07:51:07.137Z,6.97
2023-08-12T07:53:34.005Z,6.32
2023-08-12T07:56:00.773Z,7.07
2023-08-12T07:58:27.614Z,5.75
2023-08-12T08:00:55.264Z,7.67
2023-08-12T08:03:22.161Z,8.70
2023-08-12T08:05:49.271Z,7.25
2023-08-12T08:08:16.221Z,10.32
2023-08-12T08:10:43.057Z,8.52
2023-08-12T08:13:09.845Z,7.47
2023-08-12T08:15:36.617Z,6.10
2023-08-12T08:18:05.597Z,7.22
2023-08-12T08:20:33.114Z,8.82
2023-08-12T08:22:59.918Z,6.13
2023-08-12T08:25:26.829Z,9.23
2023-08-12T08:27:54.295Z,6.75
2023-08-12T08:30:21.112Z,8.50
2023-08-12T08:32:48.072Z,8.93
2023-08-12T08:35:15.268Z,7.90
2023-08-12T08:37:42.376Z,7.67
2023-08-12T08:40:09.853Z,10.43
2023-08-12T08:42:36.625Z,7.78
2023-08-12T08:45:03.591Z,8.38
2023-08-12T08:47:30.659Z,8.35
2023-08-12T08:49:58.076Z,9.13
2023-08-12T08:52:24.984Z,6.65
2023-08-12T08:54:53.431Z,7.18
2023-08-12T08:57:22.896Z,6.22
2023-08-12T08:59:57.900Z,7.90
2023-08-12T09:02:25.255Z,7.67
2023-08-12T09:04:52.052Z,6.50
2023-08-12T09:07:19.520Z,5.78
2023-08-12T09:09:49.599Z,8.70
2023-08-12T09:12:17.286Z,8.35
2023-08-12T09:14:44.240Z,7.23
2023-08-12T09:17:11.181Z,6.32
2023-08-12T09:19:38.185Z,8.10
2023-08-12T09:22:06.536Z,7.95
2023-08-12T09:24:33.368Z,8.93
2023-08-12T09:27:00.128Z,11.90
2023-08-12T09:29:36.972Z,9.95
2023-08-12T09:32:11.489Z,8.27
2023-08-12T09:34:38.807Z,7.35
2023-08-12T09:37:05.604Z,8.00
2023-08-12T09:39:32.562Z,7.37
2023-08-12T09:42:00.653Z,6.38
2023-08-12T09:44:27.443Z,8.40
2023-08-12T09:47:00.370Z,5.75
2023-08-12T09:49:27.249Z,6.68
2023-08-12T09:51:54.209Z,5.93
2023-08-12T09:54:20.987Z,7.90
2023-08-12T09:56:49.369Z,6.18
2023-08-12T09:59:20.394Z,8.48
2023-08-12T10:01:47.592Z,5.85
2023-08-12T10:04:14.521Z,5.77
2023-08-12T10:06:41.806Z,7.38
2023-08-12T10:09:12.313Z,5.60
2023-08-12T10:11:39.189Z,6.32
2023-08-12T10:14:05.988Z,5.38
2023-08-12T10:16:32.786Z,8.27
2023-08-12T10:19:00.365Z,5.90
2023-08-12T10:21:27.250Z,6.18
2023-08-12T10:23:54.712Z,6.35
2023-08-12T10:26:21.452Z,7.07
2023-08-12T10:28:50.112Z,5.60
2023-08-12T10:31:19.575Z,5.75
2023-08-12T10:33:49.569Z,7.32
2023-08-12T10:36:16.677Z,7.50
2023-08-12T10:38:44.971Z,10.05
2023-08-12T10:41:21.920Z,7.47
2023-08-12T10:44:04.007Z,6.25
2023-08-12T10:46:37.364Z,6.45
2023-08-12T10:49:10.546Z,7.75
2023-08-12T10:51:55.002Z,6.43
2023-08-12T10:54:28.476Z,5.83
2023-08-12T10:57:09.237Z,7.70
2023-08-12T10:59:51.784Z,7.45
2023-08-12T11:02:28.689Z,9.48
2023-08-12T11:04:57.150Z,6.43
2023-08-12T11:07:30.390Z,10.80
2023-08-12T11:10:01.111Z,5.05
2023-08-12T11:12:53.860Z,6.55
2023-08-12T11:15:30.334Z,7.03
2023-08-12T11:17:57.234Z,7.68
2023-08-12T11:20:24.128Z,6.80
2023-08-12T11:22:50.935Z,6.20
2023-08-12T11:25:19.207Z,7.30
2023-08-12T11:27:48.453Z,8.63
2023-08-12T11:30:16.734Z,5.82
2023-08-12T11:32:47.909Z,6.23
2023-08-12T11:35:24.469Z,7.72
2023-08-12T11:37:54.226Z,6.05
2023-08-12T11:40:21.183Z,7.68
2023-08-12T11:42:48.788Z,7.10
2023-08-12T11:45:18.356Z,6.97
2023-08-12T11:47:45.926Z,6.28
2023-08-12T11:50:13.248Z,6.53
2023-08-12T11:52:40.519Z,6.50
2023-08-12T11:55:07.948Z,6.65
2023-08-12T11:57:38.344Z,8.63
2023-08-12T12:00:19.016Z,8.13
2023-08-12T12:02:52.945Z,6.68
2023-08-12T12:05:28.824Z,8.48
2023-08-12T12:07:55.671Z,6.55
2023-08-12T12:10:33.386Z,7.57
2023-08-12T12:13:02.097Z,7.05
2023-08-12T12:15:28.978Z,12.30
2023-08-12T12:17:55.939Z,8.65
2023-08-12T12:20:23.002Z,5.70
2023-08-12T12:22:50.155Z,10.40
2023-08-12T12:25:20.483Z,8.00
2023-08-12T12:27:47.963Z,8.70
2023-08-12T12:30:15.555Z,9.10
2023-08-12T12:32:42.485Z,6.43
2023-08-12T12:35:09.567Z,5.63
2023-08-12T12:37:37.305Z,7.35
2023-08-12T12:40:06.487Z,7.70
2023-08-12T12:42:33.634Z,7.75
2023-08-12T12:45:00.652Z,6.22
2023-08-12T12:47:27.914Z,7.67
2023-08-12T12:49:54.780Z,10.35
2023-08-12T12:52:21.605Z,7.65
2023-08-12T12:54:48.426Z,7.25
2023-08-12T12:57:15.266Z,6.22
2023-08-12T12:59:42.034Z,6.83
2023-08-12T13:02:09.037Z,7.50
2023-08-12T13:04:35.913Z,7.53
2023-08-12T13:07:02.745Z,7.38
2023-08-12T13:09:29.551Z,8.65
2023-08-12T13:11:58.287Z,9.10
2023-08-12T13:14:25.468Z,7.40
2023-08-12T13:16:52.368Z,7.82
2023-08-12T13:19:19.160Z,5.60
2023-08-12T13:21:46.013Z,6.45
2023-08-12T13:24:13.222Z,6.60
2023-08-12T13:26:39.999Z,7.65
2023-08-12T13:29:06.814Z,9.55
2023-08-12T13:31:34.497Z,5.55
2023-08-12T13:34:01.436Z,9.98
2023-08-12T13:36:28.277Z,6.67
2023-08-12T13:38:55.125Z,6.18
2023-08-12T13:41:22.031Z,6.82
2023-08-12T13:43:48.897Z,7.18
2023-08-12T13:46:15.848Z,6.40
2023-08-12T13:48:43.309Z,6.70
2023-08-12T13:51:10.398Z,8.43
2023-08-12T13:53:37.343Z,8.15
2023-08-12T13:56:04.362Z,7.43
2023-08-12T13:58:31.156Z,7.70
2023-08-12T14:00:58.588Z,7.70
2023-08-12T14:03:25.372Z,7.00
2023-08-12T14:05:52.299Z,8.52
2023-08-12T14:08:19.203Z,6.80
2023-08-12T14:10:47.985Z,8.20
2023-08-12T14:13:14.847Z,9.20
2023-08-12T14:15:41.930Z,4.80
2023-08-12T14:18:09.420Z,7.13
2023-08-12T14:20:36.440Z,7.13
2023-08-12T14:23:03.266Z,7.38
2023-08-12T14:25:30.088Z,4.40
2023-08-12T14:27:56.874Z,5.70
2023-08-12T14:30:27.068Z,8.68
2023-08-12T14:32:54.533Z,8.32
2023-08-12T14:35:21.552Z,7.43
2023-08-12T14:37:48.535Z,9.77
2023-08-12T14:40:15.390Z,12.68
2023-08-12T14:42:42.165Z,7.25
2023-08-12T14:45:10.143Z,7.43
2023-08-12T14:47:37.024Z,6.68
2023-08-12T14:50:05.432Z,7.17
2023-08-12T14:52:32.408Z,5.32
2023-08-12T14:54:59.244Z,5.60
2023-08-12T14:57:26.005Z,9.60
2023-08-12T14:59:52.977Z,5.70
2023-08-12T15:02:25.697Z,4.90
2023-08-12T15:04:52.765Z,6.45
2023-08-12T15:07:20.116Z,6.90
2023-08-12T15:09:47.351Z,6.28
2023-08-12T15:12:14.183Z,6.47
2023-08-12T15:14:40.988Z,7.90
2023-08-12T15:17:07.900Z,6.75
2023-08-12T15:19:34.816Z,7.20
2023-08-12T15:22:01.658Z,8.75
2023-08-12T15:24:28.508Z,8.90
2023-08-12T15:26:55.418Z,6.47
2023-08-12T15:29:22.269Z,7.50
2023-08-12T15:31:49.135Z,6.95
2023-08-12T15:34:15.913Z,6.97
2023-08-12T15:36:43.128Z,9.10
2023-08-12T15:39:09.997Z,7.10
2023-08-12T15:41:42.943Z,6.80
2023-08-12T15:44:11.043Z,8.05
2023-08-12T15:46:38.481Z,7.25
2023-08-12T15:49:11.940Z,7.47
2023-08-12T15:51:39.689Z,8.13
2023-08-12T15:54:07.171Z,9.02
2023-08-12T15:56:37.040Z,8.15
2023-08-12T15:59:07.193Z,7.25
2023-08-12T16:01:34.372Z,8.52
2023-08-12T16:04:01.266Z,8.67
2023-08-12T16:06:28.120Z,7.50
2023-08-12T16:09:15.110Z,8.95
2023-08-12T16:11:41.537Z,7.63
2023-08-12T16:14:08.308Z,9.07
2023-08-12T16:16:35.095Z,7.27
2023-08-12T16:19:02.307Z,11.15
2023-08-12T16:21:29.098Z,8.55
2023-08-12T16:23:55.900Z,8.48
2023-08-12T16:26:22.684Z,15.43
2023-08-12T16:28:49.468Z,11.70
2023-08-12T16:31:16.318Z,8.20
2023-08-12T16:33:43.091Z,6.72
2023-08-12T16:36:09.887Z,11.95
2023-08-12T16:38:36.697Z,10.27
2023-08-12T16:41:04.820Z,12.00
2023-08-12T16:43:31.636Z,10.38
2023-08-12T16:45:58.795Z,12.32
2023-08-12T16:48:25.726Z,16.45
2023-08-12T16:50:52.515Z,25.65
2023-08-12T16:53:19.294Z,12.57
2023-08-12T16:55:46.060Z,14.10
2023-08-12T16:58:13.060Z,9.70
2023-08-12T17:00:39.865Z,9.90
2023-08-12T17:03:06.767Z,9.68
2023-08-12T17:05:33.581Z,13.47
2023-08-12T17:08:00.410Z,11.27
2023-08-12T17:10:27.473Z,8.50
2023-08-12T17:12:55.446Z,8.82
2023-08-12T17:15:22.376Z,9.40
2023-08-12T17:17:49.221Z,11.73
2023-08-12T17:20:16.075Z,11.05
2023-08-12T17:22:42.847Z,8.40
2023-08-12T17:25:10.158Z,9.73
2023-08-12T17:27:36.973Z,9.93
2023-08-12T17:30:04.286Z,9.67
2023-08-12T17:32:31.132Z,7.80
2023-08-12T17:34:58.342Z,9.07
2023-08-12T17:37:25.239Z,11.20
2023-08-12T17:39:52.181Z,9.05
2023-08-12T17:42:20.228Z,22.27
2023-08-12T17:44:47.046Z,23.48
2023-08-12T17:47:13.959Z,25.00
2023-08-12T17:49:40.836Z,19.35
2023-08-12T17:52:07.621Z,21.08
2023-08-12T17:54:34.424Z,14.30
2023-08-12T17:57:01.238Z,16.55
2023-08-12T17:59:28.033Z,11.82
2023-08-12T18:01:54.890Z,15.60
2023-08-12T18:04:21.696Z,15.93
2023-08-12T18:06:48.489Z,15.10
2023-08-12T18:09:16.602Z,16.25
2023-08-12T18:11:43.445Z,13.63
2023-08-12T18:14:10.218Z,16.30
2023-08-12T18:16:37.072Z,20.60
2023-08-12T18:19:04.077Z,13.93
2023-08-12T18:21:30.894Z,13.95
2023-08-12T18:23:57.735Z,16.38
2023-08-12T18:26:24.565Z,13.60
2023-08-12T18:28:51.353Z,13.07
2023-08-12T18:31:18.176Z,16.33
2023-08-12T18:33:44.937Z,13.48
2023-08-12T18:36:11.735Z,16.95
2023-08-12T18:38:38.530Z,14.77
2023-08-12T18:41:05.309Z,15.68
2023-08-12T18:43:32.089Z,15.03
2023-08-12T18:45:58.992Z,12.50
2023-08-12T18:48:26.094Z,12.23
2023-08-12T18:50:52.892Z,13.27
2023-08-12T18:53:19.696Z,14.30
2023-08-12T18:55:46.569Z,15.37
2023-08-12T18:58:13.393Z,12.65
2023-08-12T19:00:40.382Z,12.85
2023-08-12T19:03:07.318Z,13.60
2023-08-12T19:05:34.228Z,14.43
2023-08-12T19:08:03.210Z,13.93
2023-08-12T19:10:30.153Z,15.80
2023-08-12T19:12:57.008Z,17.65
2023-08-12T19:15:23.886Z,11.23
2023-08-12T19:17:50.767Z,11.65
2023-08-12T19:20:17.628Z,13.70
2023-08-12T19:22:44.700Z,17.23
2023-08-12T19:25:11.565Z,13.63
2023-08-12T19:27:38.397Z,16.77
2023-08-12T19:30:05.700Z,15.32
2023-08-12T19:32:32.566Z,17.80
2023-08-12T19:34:59.386Z,13.32
2023-08-12T19:37:26.280Z,15.75
2023-08-12T19:39:53.050Z,16.52
2023-08-12T19:42:19.879Z,16.27
2023-08-12T19:44:46.641Z,15.93
2023-08-12T19:47:13.429Z,17.20
2023-08-12T19:49:40.212Z,18.33
2023-08-12T19:52:07.123Z,16.40
2023-08-12T19:54:33.907Z,14.25
2023-08-12T19:57:00.715Z,20.07
2023-08-12T19:59:29.655Z,16.67
2023-08-12T20:01:57.194Z,12.95
2023-08-12T20:04:24.649Z,13.68
2023-08-12T20:06:51.717Z,18.77
2023-08-12T20:09:19.098Z,15.20
2023-08-12T20:11:45.889Z,15.00
2023-08-12T20:14:12.629Z,14.18
2023-08-12T20:16:39.427Z,15.45
2023-08-12T20:19:07.960Z,13.57
2023-08-12T20:21:34.730Z,16.50
2023-08-12T20:24:01.459Z,14.23
2023-08-12T20:26:28.240Z,17.20
2023-08-12T20:28:55.020Z,15.23
2023-08-12T20:31:23.899Z,17.15
2023-08-12T20:33:50.822Z,21.57
2023-08-12T20:36:20.366Z,14.65
2023-08-12T20:38:47.539Z,19.20
2023-08-12T20:41:14.356Z,14.35
2023-08-12T20:43:41.199Z,17.42
2023-08-12T20:46:08.007Z,20.07
2023-08-12T20:48:34.945Z,17.05
2023-08-12T20:51:01.844Z,13.48
2023-08-12T20:53:32.465Z,14.57
2023-08-12T20:55:59.590Z,17.23
2023-08-12T20:58:26.416Z,15.37
2023-08-12T21:00:53.188Z,21.13
2023-08-12T21:03:21.219Z,17.92
2023-08-12T21:05:54.234Z,18.88
2023-08-12T21:08:21.035Z,14.63
2023-08-12T21:10:54.464Z,15.67
2023-08-12T21:13:21.906Z,17.42
2023-08-12T21:15:48.768Z,17.83
2023-08-12T21:18:15.578Z,14.48
2023-08-12T21:20:42.358Z,17.15
2023-08-12T21:23:09.242Z,13.37
2023-08-12T21:25:36.105Z,23.92
2023-08-12T21:28:02.970Z,25.42
2023-08-12T21:30:29.893Z,19.02
2023-08-12T21:32:56.906Z,19.88
2023-08-12T21:35:23.937Z,17.27
2023-08-12T21:37:50.723Z,18.27
2023-08-12T21:40:17.556Z,18.00
2023-08-12T21:42:44.321Z,15.30
2023-08-12T21:45:11.729Z,14.27
2023-08-12T21:47:38.488Z,15.00
2023-08-12T21:50:06.311Z,16.50
2023-08-12T21:52:33.073Z,14.98
2023-08-12T21:54:59.871Z,16.38
2023-08-12T21:57:26.662Z,17.95
2023-08-12T21:59:53.510Z,16.43
2023-08-12T22:02:26.966Z,16.48
2023-08-12T22:04:54.012Z,18.63
2023-08-12T22:07:21.045Z,17.38
2023-08-12T22:09:47.835Z,14.45
2023-08-12T22:12:14.826Z,18.07
2023-08-12T22:14:41.993Z,15.80
2023-08-12T22:17:08.800Z,18.85
2023-08-12T22:19:35.612Z,20.90
2023-08-12T22:22:13.257Z,19.30
2023-08-12T22:24:46.311Z,20.20
2023-08-12T22:27:13.173Z,17.17
2023-08-12T22:29:40.009Z,16.20
2023-08-12T22:32:06.886Z,20.23
2023-08-12T22:34:33.705Z,18.33
2023-08-12T22:37:00.490Z,16.53
2023-08-12T22:39:27.271Z,17.67
2023-08-12T22:41:54.037Z,20.25
2023-08-12T22:44:20.800Z,16.23
2023-08-12T22:46:47.611Z,26.83
2023-08-12T22:49:15.287Z,16.17
2023-08-12T22:51:42.054Z,19.90
2023-08-12T22:54:09.481Z,21.88
2023-08-12T22:56:38.683Z,22.45
2023-08-12T22:59:05.558Z,20.98
2023-08-12T23:01:32.393Z,17.17
2023-08-12T23:03:59.161Z,17.45
2023-08-12T23:06:26.030Z,18.92
2023-08-12T23:08:52.971Z,21.80
2023-08-12T23:11:19.776Z,21.88
2023-08-12T23:13:46.700Z,21.07
2023-08-12T23:16:13.590Z,17.83
2023-08-12T23:18:40.378Z,19.23
2023-08-12T23:21:07.161Z,24.13
2023-08-12T23:23:33.934Z,18.85
2023-08-12T23:26:00.700Z,22.00
2023-08-12T23:28:27.566Z,22.35
2023-08-12T23:30:54.414Z,22.55
2023-08-12T23:33:21.231Z,18.73
2023-08-12T23:35:48.057Z,19.88
2023-08-12T23:38:14.873Z,22.63
2023-08-12T23:40:41.634Z,23.95
2023-08-12T23:43:08.387Z,19.27
2023-08-12T23:45:39.077Z,22.48
2023-08-12T23:48:06.144Z,18.15
2023-08-12T23:50:33.012Z,17.53
2023-08-12T23:52:59.879Z,19.85
2023-08-12T23:55:26.753Z,18.15
2023-08-12T23:57:53.547Z,19.30
